createdAt,value
2018-11-21T00:00:31.411Z,3.57
2018-11-21T00:03:00.615Z,3.13
2018-11-21T00:05:29.535Z,2.90
2018-11-21T00:07:58.500Z,2.80
2018-11-21T00:10:46.347Z,3.70
2018-11-21T00:13:15.414Z,3.00
2018-11-21T00:15:44.422Z,2.60
2018-11-21T00:18:13.354Z,2.70
2018-11-21T00:20:42.344Z,3.70
2018-11-21T00:23:11.237Z,3.70
2018-11-21T00:25:40.170Z,2.67
2018-11-21T00:28:09.134Z,3.40
2018-11-21T00:30:38.048Z,2.73
2018-11-21T00:33:25.984Z,3.03
2018-11-21T00:35:58.150Z,3.43
2018-11-21T00:38:46.065Z,3.90
2018-11-21T00:41:15.002Z,2.90
2018-11-21T00:44:02.914Z,3.77
2018-11-21T00:46:50.853Z,3.43
2018-11-21T00:52:13.151Z,4.07
2018-11-21T00:54:42.102Z,4.00
2018-11-21T00:57:29.996Z,5.33
2018-11-21T01:00:17.990Z,5.10
2018-11-21T01:05:40.012Z,4.70
2018-11-21T01:08:27.864Z,4.40
2018-11-21T01:10:56.884Z,4.10
2018-11-21T01:13:44.908Z,4.30
2018-11-21T01:19:07.067Z,5.40
2018-11-21T01:21:55.228Z,5.07
2018-11-21T01:24:43.074Z,5.13
2018-11-21T01:29:53.229Z,5.00
2018-11-21T01:32:41.088Z,4.17
2018-11-21T01:35:10.023Z,4.20
2018-11-21T01:37:39.078Z,4.53
2018-11-21T01:40:09.124Z,3.97
2018-11-21T01:42:38.123Z,4.60
2018-11-21T01:45:25.926Z,4.60
2018-11-21T01:47:57.176Z,4.13
2018-11-21T01:50:26.068Z,4.53
2018-11-21T01:52:55.125Z,3.63
2018-11-21T01:55:24.145Z,3.90
2018-11-21T01:58:12.000Z,4.10
2018-11-21T02:00:59.897Z,3.77
2018-11-21T02:06:21.884Z,3.40
2018-11-21T02:08:50.819Z,4.20
2018-11-21T02:11:19.855Z,3.87
2018-11-21T02:13:48.894Z,3.67
2018-11-21T02:16:17.819Z,4.00
2018-11-21T02:18:46.738Z,3.70
2018-11-21T02:21:34.668Z,3.70
2018-11-21T02:24:22.761Z,3.80
2018-11-21T02:26:51.802Z,3.50
2018-11-21T02:29:39.928Z,4.33
2018-11-21T02:32:09.165Z,3.10
2018-11-21T02:34:38.089Z,3.80
2018-11-21T02:37:07.144Z,3.73
2018-11-21T02:39:36.053Z,3.50
2018-11-21T02:42:05.040Z,3.67
2018-11-21T02:44:52.919Z,3.23
2018-11-21T02:47:40.813Z,4.63
2018-11-21T02:50:09.772Z,4.50
2018-11-21T02:52:38.670Z,4.43
2018-11-21T02:55:08.015Z,4.97
2018-11-21T02:57:37.250Z,4.23
2018-11-21T03:00:28.976Z,4.30
2018-11-21T03:03:16.839Z,4.73
2018-11-21T03:08:26.391Z,5.10
2018-11-21T03:10:55.298Z,5.23
2018-11-21T03:13:28.370Z,4.37
2018-11-21T03:15:53.602Z,4.20
2018-11-21T03:18:22.606Z,4.50
2018-11-21T03:20:53.269Z,5.20
2018-11-21T03:23:20.714Z,4.93
2018-11-21T03:25:49.825Z,4.93
2018-11-21T03:28:18.849Z,5.00
2018-11-21T03:30:47.782Z,4.97
2018-11-21T03:33:16.765Z,5.47
2018-11-21T03:35:46.081Z,5.53
2018-11-21T03:38:33.937Z,5.40
2018-11-21T03:41:03.021Z,3.70
2018-11-21T03:43:31.908Z,5.47
2018-11-21T03:46:00.894Z,4.93
2018-11-21T03:48:48.712Z,3.80
2018-11-21T03:51:17.801Z,4.00
2018-11-21T03:53:47.843Z,3.63
2018-11-21T03:56:16.728Z,4.50
2018-11-21T03:59:04.719Z,4.70
2018-11-21T04:01:33.675Z,4.53
2018-11-21T04:04:02.592Z,4.43
2018-11-21T04:06:50.521Z,5.17
2018-11-21T04:09:19.539Z,5.17
2018-11-21T04:12:07.321Z,4.17
2018-11-21T04:14:36.326Z,4.77
2018-11-21T04:17:05.721Z,5.20
2018-11-21T04:19:53.601Z,4.90
2018-11-21T04:22:41.460Z,4.97
2018-11-21T04:25:11.792Z,4.63
2018-11-21T04:27:41.042Z,4.70
2018-11-21T04:30:12.142Z,4.50
2018-11-21T04:32:41.157Z,5.13
2018-11-21T04:35:10.358Z,4.27
2018-11-21T04:37:58.263Z,4.47
2018-11-21T04:40:39.273Z,5.20
2018-11-21T04:43:08.138Z,5.40
2018-11-21T04:45:37.111Z,4.33
2018-11-21T04:48:25.234Z,5.70
2018-11-21T04:53:34.608Z,5.70
2018-11-21T04:56:03.698Z,5.17
2018-11-21T04:58:32.627Z,6.77
2018-11-21T05:01:20.635Z,7.17
2018-11-21T05:04:08.415Z,6.20
2018-11-21T05:06:37.452Z,6.33
2018-11-21T05:09:09.683Z,6.40
2018-11-21T05:11:57.493Z,6.53
2018-11-21T05:14:45.317Z,7.13
2018-11-21T05:17:14.515Z,7.07
2018-11-21T05:19:43.485Z,8.60
2018-11-21T05:22:12.425Z,9.10
2018-11-21T05:24:41.401Z,9.37
2018-11-21T05:27:10.372Z,11.90
2018-11-21T05:29:39.307Z,8.80
2018-11-21T05:32:08.241Z,6.90
2018-11-21T05:34:56.119Z,9.00
2018-11-21T05:37:25.265Z,7.10
2018-11-21T05:39:54.247Z,7.37
2018-11-21T05:42:23.252Z,8.50
2018-11-21T05:44:52.216Z,7.13
2018-11-21T05:47:40.433Z,7.60
2018-11-21T05:50:11.440Z,7.50
2018-11-21T05:52:59.375Z,7.83
2018-11-21T05:55:28.315Z,7.07
2018-11-21T05:57:57.278Z,7.07
2018-11-21T06:00:26.311Z,8.00
2018-11-21T06:02:55.188Z,8.50
2018-11-21T06:05:43.056Z,7.50
2018-11-21T06:08:12.062Z,7.20
2018-11-21T06:10:41.202Z,7.80
2018-11-21T06:13:10.188Z,8.03
2018-11-21T06:15:39.270Z,7.50
2018-11-21T06:18:08.207Z,7.37
2018-11-21T06:20:37.084Z,7.77
2018-11-21T06:23:06.151Z,8.20
2018-11-21T06:25:54.218Z,7.23
2018-11-21T06:28:23.405Z,7.13
2018-11-21T06:30:52.391Z,7.60
2018-11-21T06:33:21.314Z,11.40
2018-11-21T06:35:50.282Z,11.63
2018-11-21T06:38:19.193Z,16.27
2018-11-21T06:40:48.407Z,14.10
2018-11-21T06:43:17.369Z,18.10
2018-11-21T06:46:05.305Z,15.30
2018-11-21T06:51:15.212Z,10.97
2018-11-21T06:54:03.231Z,10.93
2018-11-21T06:56:32.200Z,10.40
2018-11-21T06:59:01.235Z,10.73
2018-11-21T07:01:30.459Z,9.77
2018-11-21T07:04:18.390Z,12.50
2018-11-21T07:06:59.258Z,31.60
2018-11-21T07:09:47.122Z,22.57
2018-11-21T07:12:16.081Z,12.13
2018-11-21T07:14:45.267Z,9.50
2018-11-21T07:17:14.259Z,13.53
2018-11-21T07:20:02.469Z,23.60
2018-11-21T07:22:31.385Z,17.33
2018-11-21T07:25:19.293Z,11.77
2018-11-21T07:33:09.362Z,18.80
2018-11-21T07:35:38.336Z,37.80
2018-11-21T07:38:07.323Z,24.90
2018-11-21T07:40:36.286Z,42.00
2018-11-21T07:43:05.779Z,20.70
2018-11-21T07:45:34.783Z,18.00
2018-11-21T07:48:23.813Z,21.20
2018-11-21T07:50:51.861Z,8.77
2018-11-21T07:53:20.824Z,8.43
2018-11-21T07:55:49.859Z,10.47
2018-11-21T07:58:21.119Z,9.30
2018-11-21T08:01:28.875Z,8.50
2018-11-21T08:06:41.939Z,7.10
2018-11-21T08:09:30.068Z,6.83
2018-11-21T08:12:18.112Z,5.13
2018-11-21T08:15:05.941Z,5.37
2018-11-21T08:17:58.955Z,5.10
2018-11-21T08:20:46.920Z,5.40
2018-11-21T08:23:34.929Z,11.33
2018-11-21T08:26:22.979Z,4.70
2018-11-21T08:29:11.057Z,5.13
2018-11-21T08:31:40.163Z,4.83
2018-11-21T08:34:09.058Z,5.60
2018-11-21T08:36:38.130Z,4.43
2018-11-21T08:39:09.236Z,5.73
2018-11-21T08:41:38.319Z,6.27
2018-11-21T08:44:26.478Z,4.90
2018-11-21T08:46:55.622Z,4.20
2018-11-21T08:49:43.613Z,6.20
2018-11-21T08:55:09.038Z,4.90
2018-11-21T08:57:36.797Z,5.30
2018-11-21T09:00:24.977Z,5.53
2018-11-21T09:02:54.065Z,4.40
2018-11-21T09:05:41.882Z,4.87
2018-11-21T09:08:10.876Z,5.23
2018-11-21T09:10:40.789Z,4.90
2018-11-21T09:13:09.780Z,4.77
2018-11-21T09:15:57.621Z,5.23
2018-11-21T09:21:07.407Z,4.70
2018-11-21T09:23:36.307Z,5.17
2018-11-21T09:26:05.255Z,3.73
2018-11-21T09:28:34.320Z,4.90
2018-11-21T09:31:22.416Z,4.77
2018-11-21T09:34:10.359Z,5.20
2018-11-21T09:39:19.876Z,4.63
2018-11-21T09:42:07.632Z,3.30
2018-11-21T09:44:36.608Z,4.63
2018-11-21T09:47:05.581Z,5.27
2018-11-21T09:49:34.592Z,5.57
2018-11-21T09:52:03.613Z,4.87
2018-11-21T09:54:32.725Z,6.77
2018-11-21T09:57:01.728Z,5.27
2018-11-21T09:59:30.767Z,5.40
2018-11-21T10:02:37.938Z,5.07
2018-11-21T10:05:18.737Z,6.10
2018-11-21T10:07:59.506Z,5.43
2018-11-21T10:10:28.535Z,5.63
2018-11-21T10:13:16.356Z,5.10
2018-11-21T10:21:08.575Z,6.00
2018-11-21T10:23:56.415Z,6.37
2018-11-21T10:26:25.532Z,6.03
2018-11-21T10:28:55.122Z,6.47
2018-11-21T10:31:24.137Z,5.87
2018-11-21T10:33:53.380Z,6.00
2018-11-21T10:36:41.247Z,6.60
2018-11-21T10:39:29.745Z,6.87
2018-11-21T10:42:17.666Z,5.23
2018-11-21T10:44:46.613Z,5.90
2018-11-21T10:47:34.529Z,6.20
2018-11-21T10:50:03.675Z,5.60
2018-11-21T10:52:51.795Z,5.80
2018-11-21T10:55:20.737Z,5.63
2018-11-21T10:57:50.527Z,33.80
2018-11-21T11:00:37.538Z,6.70
2018-11-21T11:03:12.126Z,6.97
2018-11-21T11:06:02.825Z,6.60
2018-11-21T11:08:50.761Z,6.13
2018-11-21T11:14:32.373Z,8.10
2018-11-21T11:17:20.189Z,6.27
2018-11-21T11:20:08.726Z,5.73
2018-11-21T11:22:55.916Z,7.40
2018-11-21T11:25:43.889Z,6.73
2018-11-21T11:28:31.759Z,6.00
2018-11-21T11:31:19.805Z,7.43
2018-11-21T11:34:07.604Z,7.90
2018-11-21T11:36:55.513Z,8.00
2018-11-21T11:39:43.446Z,6.30
2018-11-21T11:45:25.610Z,8.57
2018-11-21T11:48:13.786Z,7.60
2018-11-21T11:51:03.437Z,8.90
2018-11-21T11:53:51.277Z,8.87
2018-11-21T11:59:19.554Z,9.20
2018-11-21T12:02:08.550Z,7.93
2018-11-21T12:12:57.725Z,7.20
2018-11-21T12:15:45.510Z,8.83
2018-11-21T12:21:13.954Z,7.93
2018-11-21T12:24:01.817Z,7.00
2018-11-21T12:29:30.656Z,7.47
2018-11-21T12:32:18.786Z,7.47
2018-11-21T12:37:48.778Z,7.43
2018-11-21T12:40:36.755Z,8.17
2018-11-21T12:43:25.723Z,7.50
